^^
Station Historical Data
Daily Summary for August 29, 2017 Units:  Metric    English   Both
« Previous Day
Next Day »
Daily Weekly Monthly Yearly Custom
  High: Low: Average:
Temperature: 21.6 °C 6.6 °C 12.4 °C
Dew Point: 4.2 °C -5.1 °C 1 °C
Humidity: 71% 17% 48%
Wind Speed: 32km/h 0km/h 7.2km/h
Wind Gust: 33.8km/h - -
Wind- - SSW
Pressure: 1019.9 hPa 1013.4 hPa -
Precipitation: 0 mm    
Historical Graphs
 
 
Tabular Data for August 29, 2017
Time Temperature Dew Point Pressure Wind Wind Speed Wind Gust Humidity Rainfall Rate (Hourly) solar Conditions
00:51 12.1 °C 2 °C 1013.8 hPa Calm     50% 0 mm 0.0 W/m2
01:07 11.1 °C 1.3 °C 1013.8 hPa Calm     51% 0 mm 0.0 W/m2
01:12 10.7 °C 1.5 °C 1013.4 hPa Calm     53% 0 mm 0.0 W/m2
01:17 10.4 °C 1.2 °C 1013.4 hPa Calm     53% 0 mm 0.0 W/m2
01:23 10.3 °C 1.1 °C 1013.4 hPa Calm     53% 0 mm 0.0 W/m2
01:28 10.1 °C 0.9 °C 1013.4 hPa Calm     53% 0 mm 0.0 W/m2
01:33 9.8 °C 0.4 °C 1013.4 hPa Calm     52% 0 mm 0.0 W/m2
01:39 9.6 °C 0.2 °C 1013.4 hPa Calm     52% 0 mm 0.0 W/m2
01:44 9.3 °C 0.7 °C 1013.4 hPa Calm     55% 0 mm 0.0 W/m2
01:49 9.1 °C 0.8 °C 1013.4 hPa Calm     56% 0 mm 0.0 W/m2
01:54 8.9 °C 1.1 °C 1013.4 hPa Calm     58% 0 mm 0.0 W/m2
01:59 8.7 °C 0.4 °C 1013.4 hPa Calm     56% 0 mm 0.0 W/m2
02:09 8.3 °C 0 °C 1013.4 hPa Calm     56% 0 mm 0.0 W/m2
02:14 8.1 °C 1 °C 1013.4 hPa Calm     61% 0 mm 0.0 W/m2
02:19 8.3 °C 1.4 °C 1013.8 hPa Calm     62% 0 mm 0.0 W/m2
02:24 8.6 °C 1.5 °C 1013.8 hPa Calm     61% 0 mm 0.0 W/m2
02:30 8.7 °C 1.6 °C 1013.8 hPa Calm     61% 0 mm 0.0 W/m2
02:35 8.8 °C 1.9 °C 1013.8 hPa Calm     62% 0 mm 0.0 W/m2
02:40 8.9 °C 2.2 °C 1013.8 hPa Calm     63% 0 mm 0.0 W/m2
02:45 9.1 °C 2.4 °C 1013.8 hPa Calm     63% 0 mm 0.0 W/m2
02:50 9.2 °C 2.3 °C 1013.4 hPa Calm     62% 0 mm 0.0 W/m2
02:55 9.2 °C 1.4 °C 1013.4 hPa Calm     58% 0 mm 0.0 W/m2
03:00 9.1 °C 1.7 °C 1013.4 hPa Calm     60% 0 mm 0.0 W/m2
03:06 9 °C 1.4 °C 1013.4 hPa Calm     59% 0 mm 0.0 W/m2
03:11 8.8 °C 1.5 °C 1013.4 hPa Calm     60% 0 mm 0.0 W/m2
03:16 8.6 °C 1.3 °C 1013.4 hPa Calm     60% 0 mm 0.0 W/m2
03:21 8.4 °C 1.1 °C 1013.4 hPa Calm     60% 0 mm 0.0 W/m2
03:26 8.2 °C 0.4 °C 1013.4 hPa Calm     58% 0 mm 0.0 W/m2
03:32 7.9 °C 0.4 °C 1013.8 hPa Calm     59% 0 mm 0.0 W/m2
03:37 7.7 °C 0.9 °C 1013.4 hPa Calm     62% 0 mm 0.0 W/m2
03:42 7.7 °C 0.4 °C 1013.8 hPa Calm     60% 0 mm 0.0 W/m2
03:47 7.6 °C -0.4 °C 1014.1 hPa Calm     57% 0 mm 0.0 W/m2
03:52 7.4 °C 0.1 °C 1014.1 hPa Calm     60% 0 mm 0.0 W/m2
03:57 7.3 °C 0.5 °C 1014.1 hPa Calm     62% 0 mm 0.0 W/m2
04:02 7.2 °C 0 °C 1014.1 hPa Calm     60% 0 mm 0.0 W/m2
04:08 7.2 °C 0.2 °C 1014.1 hPa Calm     61% 0 mm 0.0 W/m2
04:13 7.2 °C 0.2 °C 1014.4 hPa Calm     61% 0 mm 0.0 W/m2
04:18 7.2 °C 0.2 °C 1014.4 hPa Calm     61% 0 mm 0.0 W/m2
04:44 6.7 °C 0.2 °C 1014.8 hPa Calm     63% 0 mm 0.0 W/m2
04:54 6.6 °C 0.3 °C 1014.8 hPa Calm     64% 0 mm 0.0 W/m2
04:59 6.6 °C 0.3 °C 1014.8 hPa Calm     64% 0 mm 0.0 W/m2
05:05 6.7 °C 0.8 °C 1014.8 hPa Calm     66% 0 mm 0.0 W/m2
05:10 6.8 °C 0.2 °C 1014.8 hPa Calm     63% 0 mm 0.0 W/m2
05:15 6.7 °C -0.1 °C 1014.8 hPa Calm     62% 0 mm 0.0 W/m2
05:20 6.7 °C 0.4 °C 1014.8 hPa Calm     64% 0 mm 0.0 W/m2
05:25 6.7 °C -0.1 °C 1014.8 hPa Calm     62% 0 mm 0.0 W/m2
05:30 6.8 °C 0.2 °C 1014.8 hPa Calm     63% 0 mm 0.0 W/m2
05:36 6.9 °C 0.3 °C 1014.8 hPa Calm     63% 0 mm 0.0 W/m2
05:46 7.1 °C -0.4 °C 1014.8 hPa Calm     59% 0 mm 0.0 W/m2
05:51 7 °C -0.5 °C 1014.8 hPa Calm     59% 0 mm 0.0 W/m2
06:01 7.2 °C -0.8 °C 1014.8 hPa Calm     57% 0 mm 0.0 W/m2
06:07 7.3 °C -0.9 °C 1014.8 hPa Calm     56% 0 mm 0.0 W/m2
06:12 7.2 °C -1 °C 1015.1 hPa Calm     56% 0 mm 7.0 W/m2
06:17 7.1 °C -1.1 °C 1015.1 hPa Calm     56% 0 mm 12.0 W/m2
06:23 6.9 °C -1.3 °C 1015.1 hPa Calm     56% 0 mm 18.0 W/m2
06:33 7.1 °C -1.6 °C 1015.1 hPa Calm     54% 0 mm 28.0 W/m2
06:38 7.2 °C -1.7 °C 1015.1 hPa Calm     53% 0 mm 37.0 W/m2
06:43 7.6 °C -1.4 °C 1015.1 hPa Calm     53% 0 mm 83.0 W/m2
06:48 7.7 °C -1.8 °C 1015.5 hPa Calm     51% 0 mm 100.0 W/m2
06:58 8.5 °C -2.5 °C 1015.5 hPa Calm     46% 0 mm 127.0 W/m2
07:03 8.8 °C -1.9 °C 1015.5 hPa Calm     47% 0 mm 139.0 W/m2
07:09 9.1 °C -2.2 °C 1015.8 hPa Calm     45% 0 mm 148.0 W/m2
07:13 9.5 °C -2.5 °C 1015.8 hPa Calm     43% 0 mm 179.0 W/m2
07:20 9.9 °C -1.8 °C 1016.1 hPa Calm     44% 0 mm 183.0 W/m2
07:24 10.4 °C -1.6 °C 1016.1 hPa Calm     43% 0 mm 202.0 W/m2
07:29 11 °C -1.4 °C 1016.1 hPa SSW 13 km/h 16.1 km/h 42% 0 mm 236.0 W/m2
07:34 11.9 °C 1.2 °C 1016.5 hPa SSW 19.5 km/h 20.9 km/h 48% 0 mm 253.0 W/m2
07:44 12.9 °C 0.3 °C 1016.5 hPa SSW 7.9 km/h 9.7 km/h 42% 0 mm 283.0 W/m2
09:48 20.5 °C -3.9 °C 1016.1 hPa Calm     19% 0 mm 624.0 W/m2
09:54 20.6 °C -4.6 °C 1016.1 hPa Calm     18% 0 mm 633.0 W/m2
10:02 20.7 °C -3.8 °C 1016.1 hPa Calm     19% 0 mm 645.0 W/m2
10:12 20.9 °C -4.3 °C 1016.1 hPa Calm     18% 0 mm 663.0 W/m2
10:20 20.9 °C -5.1 °C 1015.8 hPa Calm     17% 0 mm 677.0 W/m2
10:28 21.1 °C -4.9 °C 1016.1 hPa Calm     17% 0 mm 694.0 W/m2
10:39 21.3 °C -4.7 °C 1016.1 hPa Calm     17% 0 mm 705.0 W/m2
10:55 21.6 °C -4.5 °C 1016.1 hPa SSW 4.7 km/h 8 km/h 17% 0 mm 724.0 W/m2
11:04 21.5 °C 0.6 °C 1015.8 hPa SSW 17.7 km/h 19.3 km/h 25% 0 mm 733.0 W/m2
11:24 20.7 °C 3 °C 1015.5 hPa SSW 17.7 km/h 17.7 km/h 31% 0 mm 740.0 W/m2
11:29 20.3 °C 2.6 °C 1015.1 hPa SSW 16.3 km/h 17.7 km/h 31% 0 mm 747.0 W/m2
11:34 20.6 °C 2.9 °C 1015.1 hPa SSW 6.4 km/h 16.1 km/h 31% 0 mm 747.0 W/m2
11:42 20.4 °C 2.7 °C 1015.1 hPa SSW 11.1 km/h 16.1 km/h 31% 0 mm 749.0 W/m2
11:49 20.6 °C 2.4 °C 1015.1 hPa SSW 9.7 km/h 17.7 km/h 30% 0 mm 751.0 W/m2
11:59 20.9 °C 2.7 °C 1015.1 hPa SSW 17.7 km/h 22.5 km/h 30% 0 mm 747.0 W/m2
12:19 21.3 °C 2.5 °C 1015.1 hPa SW 14.3 km/h 22.5 km/h 29% 0 mm 742.0 W/m2
12:28 21.1 °C 3.8 °C 1015.1 hPa SW 22.7 km/h 24.1 km/h 32% 0 mm 738.0 W/m2
12:36 20.5 °C 3.7 °C 1015.1 hPa SSW 19.5 km/h 24.1 km/h 33% 0 mm 728.0 W/m2
12:39 20.4 °C 3.6 °C 1015.1 hPa SSW 20.9 km/h 22.5 km/h 33% 0 mm 724.0 W/m2
12:52 20.2 °C 3.8 °C 1015.1 hPa SSW 24.1 km/h 24.1 km/h 34% 0 mm 710.0 W/m2
13:02 20.1 °C 4.2 °C 1015.1 hPa SSW 16.3 km/h 27.4 km/h 35% 0 mm 698.0 W/m2
13:11 19.8 °C 3.9 °C 1015.5 hPa South 20.9 km/h 27.4 km/h 35% 0 mm 679.0 W/m2
14:45 19.6 °C 4.1 °C 1015.1 hPa SSW 20.9 km/h 32.2 km/h 36% 0 mm 448.0 W/m2
14:51 19.5 °C 4 °C 1015.1 hPa SSW 20.9 km/h 29 km/h 36% 0 mm 432.0 W/m2
14:55 19.4 °C 3.9 °C 1015.1 hPa South 22.7 km/h 29 km/h 36% 0 mm 413.0 W/m2
15:02 19.5 °C 4 °C 1015.1 hPa South 22.7 km/h 25.7 km/h 36% 0 mm 396.0 W/m2
15:07 19.6 °C 3.7 °C 1015.1 hPa South 27.4 km/h 30.6 km/h 35% 0 mm 380.0 W/m2
15:13 19.6 °C 3.3 °C 1015.5 hPa South 20.9 km/h 30.6 km/h 34% 0 mm 357.0 W/m2
15:20 20 °C 3.7 °C 1015.1 hPa South 17.7 km/h 27.4 km/h 34% 0 mm 304.0 W/m2
15:26 20 °C 3.7 °C 1015.1 hPa South 17.7 km/h 27.4 km/h 34% 0 mm 304.0 W/m2
15:39 19.9 °C 3.1 °C 1015.1 hPa South 19.5 km/h 24.1 km/h 33% 0 mm 274.0 W/m2
15:46 19.6 °C 3.3 °C 1015.5 hPa SSW 20.9 km/h 29 km/h 34% 0 mm 232.0 W/m2
16:41 17.8 °C 2.5 °C 1016.5 hPa SSW 28.8 km/h 30.6 km/h 36% 0 mm 56.0 W/m2
16:46 17.5 °C 1.9 °C 1016.5 hPa South 27.4 km/h 33.8 km/h 35% 0 mm 49.0 W/m2
16:51 17.3 °C 1.7 °C 1016.5 hPa SSW 32 km/h 32.2 km/h 35% 0 mm 46.0 W/m2
17:02 16.8 °C 2.4 °C 1016.8 hPa SSW 28.8 km/h 32.2 km/h 38% 0 mm 46.0 W/m2
17:07 16.7 °C 2.3 °C 1016.8 hPa South 27.4 km/h 33.8 km/h 38% 0 mm 35.0 W/m2
17:13 16.5 °C 2.1 °C 1016.8 hPa South 27.4 km/h 30.6 km/h 38% 0 mm 25.0 W/m2
17:16 16.3 °C 2.3 °C 1016.8 hPa South 25.9 km/h 30.6 km/h 39% 0 mm 14.0 W/m2
17:31 15.7 °C 2.1 °C 1017.2 hPa South 19.5 km/h 30.6 km/h 40% 0 mm 9.0 W/m2
17:41 15.4 °C 2.2 °C 1017.2 hPa South 24.1 km/h 30.6 km/h 41% 0 mm 0.0 W/m2
17:50 15.1 °C 1.9 °C 1017.5 hPa South 19.5 km/h 32.2 km/h 41% 0 mm 0.0 W/m2
17:57 14.8 °C 1.3 °C 1017.5 hPa South 19.5 km/h 24.1 km/h 40% 0 mm 0.0 W/m2
19:37 13.1 °C 2 °C 1018.8 hPa South 11.1 km/h 14.5 km/h 47% 0 mm 0.0 W/m2
19:42 13.1 °C 2 °C 1018.8 hPa South 11.1 km/h 14.5 km/h 47% 0 mm 0.0 W/m2
19:57 12.9 °C 2.2 °C 1018.8 hPa South 11.1 km/h 12.9 km/h 48% 0 mm 0.0 W/m2
20:02 12.8 °C 2.3 °C 1019.2 hPa South 7.9 km/h 12.9 km/h 49% 0 mm 0.0 W/m2
20:17 12.5 °C 2.1 °C 1019.2 hPa South 4.7 km/h 9.7 km/h 49% 0 mm 0.0 W/m2
20:33 12.3 °C 2.4 °C 1019.5 hPa South 14.3 km/h 17.7 km/h 51% 0 mm 0.0 W/m2
20:48 12.1 °C 3.1 °C 1019.5 hPa South 9.7 km/h 14.5 km/h 54% 0 mm 0.0 W/m2
20:58 11.9 °C 3.1 °C 1019.5 hPa South 11.1 km/h 16.1 km/h 55% 0 mm 0.0 W/m2
21:13 11.7 °C 3.2 °C 1019.5 hPa South 11.1 km/h 14.5 km/h 56% 0 mm 0.0 W/m2
21:23 11.3 °C 3.6 °C 1019.5 hPa South 14.3 km/h 16.1 km/h 59% 0 mm 0.0 W/m2
21:43 11.1 °C 3.9 °C 1019.5 hPa South 16.3 km/h 20.9 km/h 61% 0 mm 0.0 W/m2
21:57 10.9 °C 3.9 °C 1019.5 hPa South 14.3 km/h 17.7 km/h 62% 0 mm 0.0 W/m2
22:04 10.8 °C 3.8 °C 1019.5 hPa South 14.3 km/h 17.7 km/h 62% 0 mm 0.0 W/m2
23:37 8.7 °C 2.9 °C 1019.9 hPa Calm     67% 0 mm 0.0 W/m2
23:42 8.5 °C 2.7 °C 1019.5 hPa Calm     67% 0 mm 0.0 W/m2
23:53 8.1 °C 2.8 °C 1019.9 hPa Calm     69% 0 mm 0.0 W/m2
23:58 8.1 °C 3.2 °C 1019.9 hPa Calm     71% 0 mm 0.0 W/m2
Canyon Roadhouse, Fishriver Canyon, Namibia
Compliments of Weather Underground - 2.25 mb